Time;durP1;ratioP1;P1;durP2;ratioP2;P2;SDS_P1;SDS_P2;PMS_P1;PMS_P2;Temp;Humidity;BMP_temperature;BMP_pressure;BME280_temperature;BME280_humidity;BME280_pressure;Samples;Min_cycle;Max_cycle;Signal;HPM_P1;HPM_P2
2022/08/27 00:05:21;;;;;;;10.20;2.30;;;;;;;19.91;57.59;101642.63;5944356;24;20016;-59
2022/08/27 00:08:33;;;;;;;5.15;2.00;;;;;;;19.95;57.62;101642.88;5895023;24;20013;-59
2022/08/27 00:33:42;;;;;;;;;;;;;;;;;;;;;
2022/08/27 00:40:54;;;;;;;;;;;;;;;;;;;;;
2022/08/27 00:48:11;;;;;;;5.25;2.80;;;;;;;19.47;58.72;101620.19;5839436;24;20503;-60
2022/08/27 01:08:57;;;;;;;6.22;2.58;;;;;;;19.17;59.47;101627.75;5958123;24;20009;-59
2022/08/27 01:12:06;;;;;;;7.80;3.03;;;;;;;19.21;59.51;101634.47;5948454;24;20072;-59
2022/08/27 01:15:39;;;;;;;6.03;2.80;;;;;;;19.15;59.82;101630.03;5882537;24;20012;-60
2022/08/27 01:29:25;;;;;;;5.05;2.53;;;;;;;19.07;59.83;101623.03;5885097;24;20393;-60
2022/08/27 01:35:55;;;;;;;5.75;2.53;;;;;;;19.02;59.98;101619.41;5904871;24;20096;-61
2022/08/27 01:52:36;;;;;;;5.65;3.00;;;;;;;18.89;60.02;101621.72;6212693;23;20015;-59
2022/08/27 01:55:50;;;;;;;5.65;3.30;;;;;;;18.84;60.70;101621.75;6082009;23;20013;-60
2022/08/27 01:59:15;;;;;;;5.53;3.45;;;;;;;18.80;60.54;101617.84;6090610;23;20016;-60
2022/08/27 02:09:50;;;;;;;6.82;2.70;;;;;;;18.70;60.45;101609.47;6056261;23;20025;-61
2022/08/27 02:20:18;;;;;;;;;;;;;;;;;;;;;
2022/08/27 02:27:05;;;;;;;8.57;4.00;;;;;;;18.57;60.85;101608.09;5939375;24;20023;-60
2022/08/27 02:30:34;;;;;;;10.02;3.65;;;;;;;18.54;60.84;101593.78;5977975;24;20012;-60
2022/08/27 02:51:12;;;;;;;7.85;4.13;;;;;;;18.33;61.50;101591.06;5839884;24;20026;-60
2022/08/27 02:54:54;;;;;;;;;;;;;;;;;;;;;
2022/08/27 02:57:46;;;;;;;7.78;3.90;;;;;;;18.22;62.15;101600.66;5810001;24;20097;-59
2022/08/27 03:26:19;;;;;;;9.82;4.82;;;;;;;18.22;62.00;101600.66;5827969;24;20025;-60
2022/08/27 03:29:19;;;;;;;7.57;4.90;;;;;;;18.27;62.12;101596.97;5851337;24;20041;-59
2022/08/27 03:32:26;;;;;;;8.30;4.97;;;;;;;18.22;62.21;101599.81;5866066;24;20175;-59
2022/08/27 03:38:45;;;;;;;8.32;4.78;;;;;;;18.25;62.00;101600.09;5958774;23;20020;-60
2022/08/27 03:42:12;;;;;;;;;;;;;;;;;;;;;
2022/08/27 03:45:53;;;;;;;8.07;5.07;;;;;;;18.22;62.24;101606.28;6078553;23;20077;-61
2022/08/27 03:52:20;;;;;;;;;;;;;;;;;;;;;
2022/08/27 03:59:11;;;;;;;10.80;4.78;;;;;;;18.08;62.58;101605.22;5947273;24;20024;-60
2022/08/27 04:05:33;;;;;;;11.10;5.38;;;;;;;17.94;63.07;101596.53;5893820;24;20028;-61
2022/08/27 04:12:14;;;;;;;10.23;5.30;;;;;;;18.03;62.87;101606.03;5948024;24;20099;-61
2022/08/27 04:15:55;;;;;;;;;;;;;;;;;;;;;
2022/08/27 04:19:16;;;;;;;7.95;5.30;;;;;;;18.02;62.94;101600.72;5945693;23;20062;-61
2022/08/27 04:26:01;;;;;;;9.27;5.25;;;;;;;18.01;62.89;101602.69;6119427;23;20024;-62
2022/08/27 04:29:20;;;;;;;9.43;5.35;;;;;;;18.01;62.91;101599.03;6026887;23;20016;-59
2022/08/27 04:36:33;;;;;;;;;;;;;;;;;;;;;
2022/08/27 04:46:57;;;;;;;;;;;;;;;;;;;;;
2022/08/27 04:50:17;;;;;;;8.10;5.15;;;;;;;17.90;63.35;101607.50;5987743;23;20080;-60
2022/08/27 04:53:34;;;;;;;8.77;5.15;;;;;;;17.79;63.98;101614.25;5948901;24;20017;-60
2022/08/27 05:00:10;;;;;;;9.10;5.50;;;;;;;17.74;64.57;101614.22;5923068;24;20479;-61
2022/08/27 05:06:53;;;;;;;9.02;5.80;;;;;;;17.82;64.06;101621.28;5945337;24;20043;-59
2022/08/27 05:09:36;;;;;;;9.73;6.15;;;;;;;17.78;64.33;101618.19;5975438;23;20095;-60
2022/08/27 05:12:40;;;;;;;8.80;5.85;;;;;;;17.87;64.32;101621.25;6029084;23;20019;-60
2022/08/27 05:15:06;;;;;;;11.25;6.03;;;;;;;17.80;64.71;101615.06;6028911;23;20017;-58
2022/08/27 05:17:31;;;;;;;9.07;5.78;;;;;;;17.79;64.84;101619.84;6121014;23;20009;-58
2022/08/27 05:19:57;;;;;;;10.38;5.95;;;;;;;17.80;65.04;101617.88;6180118;23;20329;-58
2022/08/27 05:22:26;;;;;;;10.18;6.10;;;;;;;17.79;64.96;101619.84;6210131;23;20592;-59
2022/08/27 05:24:51;;;;;;;10.15;6.32;;;;;;;17.81;65.30;101612.00;6214353;23;20440;-58
2022/08/27 05:27:17;;;;;;;12.35;6.00;;;;;;;17.82;65.15;101618.47;6216728;23;20083;-57
2022/08/27 05:29:42;;;;;;;11.23;6.60;;;;;;;17.83;64.99;101626.59;6213795;23;20015;-57
2022/08/27 05:32:08;;;;;;;13.07;6.55;;;;;;;17.81;65.18;101614.81;6215173;23;20147;-58
2022/08/27 05:34:33;;;;;;;13.07;6.07;;;;;;;17.86;65.39;101625.19;6216682;23;20013;-58
2022/08/27 05:36:59;;;;;;;9.63;6.43;;;;;;;17.88;65.11;101617.31;6214518;23;20114;-58
2022/08/27 05:39:24;;;;;;;9.25;6.32;;;;;;;17.89;65.38;101630.25;6216479;23;20004;-58
2022/08/27 05:41:51;;;;;;;10.40;6.68;;;;;;;17.86;65.49;101623.22;6215175;23;20028;-58
2022/08/27 05:44:17;;;;;;;11.45;6.22;;;;;;;17.87;65.47;101627.69;6216015;23;20005;-59
2022/08/27 05:46:42;;;;;;;14.77;7.15;;;;;;;17.89;65.80;101625.47;6216114;23;20063;-57
2022/08/27 05:49:08;;;;;;;12.45;6.55;;;;;;;17.94;65.42;101630.22;6214052;23;20005;-57
2022/08/27 05:51:35;;;;;;;9.10;6.63;;;;;;;17.89;65.59;101631.09;6217127;23;20119;-57
2022/08/27 05:54:06;;;;;;;10.35;6.45;;;;;;;17.93;65.86;101630.53;6216936;23;20024;-58
2022/08/27 05:56:34;;;;;;;8.82;6.90;;;;;;;17.96;65.68;101630.81;6214913;23;20443;-58
2022/08/27 06:01:48;;;;;;;12.02;6.72;;;;;;;17.97;65.80;101631.66;6215140;23;20777;-58
2022/08/27 06:04:14;;;;;;;14.38;7.25;;;;;;;17.98;65.80;101636.13;6215737;23;20001;-58
2022/08/27 06:06:41;;;;;;;12.77;6.72;;;;;;;17.99;66.02;101640.59;6216382;23;20018;-58
2022/08/27 06:09:08;;;;;;;9.98;7.13;;;;;;;18.00;65.99;101640.34;6216901;23;20058;-58
2022/08/27 06:11:34;;;;;;;12.30;6.75;;;;;;;17.98;66.22;101642.59;6215588;23;20079;-57
2022/08/27 06:13:59;;;;;;;8.70;6.25;;;;;;;18.03;66.10;101642.56;6216876;23;20492;-57
2022/08/27 06:16:24;;;;;;;11.50;6.65;;;;;;;18.05;66.34;101650.72;6216656;23;20009;-57
2022/08/27 06:18:50;;;;;;;11.75;6.90;;;;;;;18.03;66.28;101651.00;6215658;23;20028;-57
2022/08/27 06:21:18;;;;;;;12.23;6.65;;;;;;;18.05;66.28;101656.34;6216566;23;20008;-57
2022/08/27 06:23:44;;;;;;;8.20;5.60;;;;;;;18.10;66.15;101654.34;6214622;23;20028;-57
2022/08/27 06:26:16;;;;;;;10.20;6.13;;;;;;;18.10;66.12;101650.69;6213608;23;20048;-57
2022/08/27 06:28:42;;;;;;;;;;;;;;;18.31;64.67;101652.34;6215262;23;20036;-58
2022/08/27 06:31:22;;;;;;;12.98;6.55;;;;;;;18.14;65.92;101646.19;6214207;23;19935;-58
2022/08/27 06:33:50;;;;;;;10.10;6.60;;;;;;;18.16;65.90;101646.78;6214978;23;20004;-58
2022/08/27 06:36:18;;;;;;;13.77;7.50;;;;;;;18.13;65.99;101645.38;6202853;23;20005;-58
2022/08/27 06:38:46;;;;;;;12.55;7.40;;;;;;;18.13;66.09;101634.13;6211092;23;20058;-58
2022/08/27 06:41:13;;;;;;;8.65;6.53;;;;;;;18.17;66.23;101645.63;6211828;23;20050;-57
2022/08/27 06:43:41;;;;;;;12.27;6.93;;;;;;;18.18;66.24;101643.66;6213998;23;20063;-57
2022/08/27 06:46:09;;;;;;;10.35;7.10;;;;;;;18.19;66.09;101651.78;6213915;23;20013;-57
2022/08/27 06:48:34;;;;;;;15.45;7.28;;;;;;;18.19;66.31;101649.00;6213797;23;20332;-57
2022/08/27 06:51:06;;;;;;;15.65;7.50;;;;;;;18.20;66.30;101644.22;6214100;23;20025;-58
2022/08/27 06:53:32;;;;;;;11.52;6.97;;;;;;;18.23;66.23;101646.44;6211079;23;20070;-58
2022/08/27 06:55:57;;;;;;;12.68;7.07;;;;;;;18.26;65.86;101646.72;6214853;23;20004;-58
2022/08/27 06:58:23;;;;;;;9.48;6.90;;;;;;;18.27;65.91;101644.75;6213098;23;20011;-57
2022/08/27 07:00:49;;;;;;;10.90;6.00;;;;;;;18.23;65.89;101647.28;6213795;23;20325;-57
2022/08/27 07:03:15;;;;;;;8.93;6.40;;;;;;;18.25;65.96;101647.03;6212458;23;20490;-58
2022/08/27 07:05:40;;;;;;;11.75;5.90;;;;;;;18.29;65.95;101646.16;6211810;23;20012;-58
2022/08/27 07:08:07;;;;;;;9.50;5.72;;;;;;;18.31;66.11;101646.72;6211640;23;20384;-58
2022/08/27 07:10:33;;;;;;;10.15;5.60;;;;;;;18.32;65.99;101654.03;6212603;23;20004;-58
2022/08/27 07:12:59;;;;;;;11.73;5.68;;;;;;;18.32;65.51;101654.03;6214536;23;20004;-58
2022/08/27 07:15:25;;;;;;;9.77;5.63;;;;;;;18.33;65.84;101652.06;6213048;23;20009;-58
2022/08/27 07:17:51;;;;;;;9.80;6.18;;;;;;;18.38;65.59;101654.84;6214758;23;20328;-58
2022/08/27 07:20:17;;;;;;;9.90;5.38;;;;;;;18.39;65.60;101651.75;6212966;23;20036;-57
2022/08/27 07:22:44;;;;;;;13.27;5.63;;;;;;;18.38;65.64;101658.47;6214012;23;20008;-58
2022/08/27 07:25:14;;;;;;;8.95;5.10;;;;;;;18.42;65.41;101655.94;6213970;23;20016;-57
2022/08/27 07:27:39;;;;;;;8.05;4.53;;;;;;;18.45;65.12;101654.53;6213747;23;20005;-57
2022/08/27 07:30:10;;;;;;;10.65;4.75;;;;;;;18.44;65.37;101659.31;6213054;23;20008;-57
2022/08/27 07:32:36;;;;;;;10.15;5.38;;;;;;;18.47;65.00;101660.69;6212248;23;20443;-59
2022/08/27 07:35:02;;;;;;;9.48;4.97;;;;;;;18.48;65.01;101654.81;6211429;23;20012;-57
2022/08/27 07:37:27;;;;;;;11.43;5.30;;;;;;;18.51;64.91;101665.50;6214211;23;20027;-58
2022/08/27 07:39:53;;;;;;;10.98;5.15;;;;;;;18.55;64.60;101660.09;6212006;23;20013;-58
2022/08/27 07:45:02;;;;;;;7.32;4.47;;;;;;;18.61;64.11;101661.78;6213690;23;20048;-58
2022/08/27 07:47:27;;;;;;;12.57;5.30;;;;;;;18.62;64.23;101663.47;6213024;23;20428;-58
2022/08/27 07:49:54;;;;;;;7.72;4.28;;;;;;;18.65;64.01;101668.50;6212602;23;20025;-58
2022/08/27 07:52:19;;;;;;;9.35;4.80;;;;;;;18.71;64.09;101675.00;6212539;23;20508;-58
2022/08/27 07:54:44;;;;;;;11.07;5.80;;;;;;;18.73;64.17;101667.94;6213353;23;20341;-58
2022/08/27 07:57:10;;;;;;;9.65;5.38;;;;;;;18.78;64.14;101667.91;6213037;23;20091;-58
2022/08/27 07:59:36;;;;;;;10.00;5.55;;;;;;;18.83;63.44;101667.91;6213090;23;20007;-57
2022/08/27 08:02:01;;;;;;;10.60;4.53;;;;;;;18.87;63.58;101674.63;6212678;23;20012;-59
2022/08/27 08:04:27;;;;;;;8.25;4.97;;;;;;;18.87;63.37;101668.16;6209533;23;20411;-58
2022/08/27 08:06:54;;;;;;;10.00;5.13;;;;;;;18.95;62.68;101675.16;6213725;23;20401;-58
2022/08/27 08:09:21;;;;;;;8.75;4.85;;;;;;;18.97;63.29;101672.88;6212125;23;20004;-59
2022/08/27 08:11:48;;;;;;;10.45;5.03;;;;;;;19.02;63.44;101673.72;6211810;23;20027;-59
2022/08/27 08:14:14;;;;;;;8.73;4.38;;;;;;;19.15;62.62;101677.84;6212262;23;20019;-59
2022/08/27 08:16:39;;;;;;;8.20;4.38;;;;;;;19.26;62.06;101670.19;6212039;23;20005;-58
2022/08/27 08:19:04;;;;;;;11.82;4.60;;;;;;;19.43;62.02;101670.63;6212770;23;20004;-59
2022/08/27 08:21:30;;;;;;;5.85;2.50;;;;;;;19.73;63.05;101671.53;6212470;23;20092;-58
2022/08/27 08:23:55;;;;;;;7.07;3.28;;;;;;;19.83;61.88;101669.47;6209819;23;20017;-58
2022/08/27 08:26:21;;;;;;;6.00;2.78;;;;;;;20.14;62.44;101674.81;6211646;23;20015;-58
2022/08/27 08:28:47;;;;;;;4.90;2.53;;;;;;;20.25;61.21;101670.75;6212711;23;20139;-58
2022/08/27 08:31:12;;;;;;;5.07;2.50;;;;;;;20.51;60.67;101673.28;6211865;23;20044;-58
2022/08/27 08:33:38;;;;;;;5.18;2.67;;;;;;;20.67;59.76;101673.94;6212952;23;20012;-59
2022/08/27 08:36:06;;;;;;;5.78;2.80;;;;;;;20.79;58.70;101686.50;6213186;23;20013;-58
2022/08/27 08:38:31;;;;;;;6.07;2.95;;;;;;;20.97;58.25;101682.00;6212424;23;20009;-58
2022/08/27 08:40:57;;;;;;;8.48;2.50;;;;;;;21.13;57.75;101679.81;6213491;23;20435;-59
2022/08/27 08:43:34;;;;;;;6.72;3.65;;;;;;;21.12;56.99;101689.44;6212702;23;20005;-59
2022/08/27 08:46:29;;;;;;;6.03;3.40;;;;;;;21.23;57.26;101678.84;6212071;23;20043;-59
2022/08/27 08:49:01;;;;;;;4.18;2.72;;;;;;;21.37;56.32;101678.94;6208607;23;20004;-58
2022/08/27 08:51:39;;;;;;;4.07;2.42;;;;;;;21.48;56.42;101681.28;6213490;23;20004;-58
2022/08/27 08:54:09;;;;;;;7.13;3.08;;;;;;;21.56;55.57;101672.13;6212726;23;20012;-59
2022/08/27 08:56:44;;;;;;;5.75;3.03;;;;;;;21.62;55.47;101672.06;6212683;23;20378;-58
2022/08/27 08:59:17;;;;;;;4.53;2.45;;;;;;;21.76;54.79;101678.56;6207800;23;20016;-59
2022/08/27 09:01:44;;;;;;;6.13;2.55;;;;;;;21.84;54.32;101677.03;6212210;23;19996;-59
2022/08/27 09:04:10;;;;;;;4.22;2.70;;;;;;;21.79;52.42;101684.44;6209072;23;20508;-59
2022/08/27 09:07:08;;;;;;;8.77;2.72;;;;;;;21.85;54.39;101682.41;6211027;23;20012;-59
2022/08/27 09:09:43;;;;;;;3.92;2.20;;;;;;;21.91;52.71;101688.78;6158253;23;20020;-59
2022/08/27 09:12:23;;;;;;;4.95;2.30;;;;;;;21.94;53.22;101683.34;6210446;23;20421;-59
2022/08/27 09:15:02;;;;;;;3.58;2.05;;;;;;;21.90;52.47;101687.94;6210568;23;20015;-60
2022/08/27 09:17:28;;;;;;;7.85;2.30;;;;;;;21.88;52.50;101683.75;6210715;23;20005;-60
2022/08/27 09:19:53;;;;;;;5.63;2.15;;;;;;;21.79;51.66;101697.75;6212177;23;20011;-57
2022/08/27 09:22:28;;;;;;;2.95;1.90;;;;;;;21.78;52.13;101691.25;6211417;23;20092;-57
2022/08/27 09:25:17;;;;;;;4.25;1.95;;;;;;;21.71;52.45;101693.63;6212578;23;20314;-58
2022/08/27 09:27:42;;;;;;;5.57;1.90;;;;;;;21.69;51.54;101690.28;6214160;23;20008;-58
2022/08/27 09:30:13;;;;;;;6.63;2.33;;;;;;;21.71;51.94;101684.31;6212380;23;20027;-58
2022/08/27 09:32:39;;;;;;;4.20;1.73;;;;;;;21.58;50.84;101685.97;6213591;23;20005;-58
2022/08/27 09:35:08;;;;;;;3.72;2.25;;;;;;;21.62;50.90;101686.19;6210338;23;20005;-58
2022/08/27 09:37:43;;;;;;;4.60;2.17;;;;;;;21.59;51.62;101686.78;6211826;23;20082;-57
2022/08/27 09:40:26;;;;;;;3.67;1.83;;;;;;;21.64;52.71;101689.53;6211520;23;20009;-58
2022/08/27 09:42:57;;;;;;;4.43;2.25;;;;;;;21.50;50.79;101687.50;6210532;23;20383;-58
2022/08/27 09:45:26;;;;;;;3.85;2.10;;;;;;;21.50;51.83;101689.47;6209788;23;20424;-58
2022/08/27 09:48:06;;;;;;;4.45;2.03;;;;;;;21.52;51.46;101690.81;6210753;23;20005;-58
2022/08/27 09:50:40;;;;;;;5.45;2.05;;;;;;;21.56;51.20;101691.06;6209266;23;20417;-58
2022/08/27 09:53:18;;;;;;;4.85;2.30;;;;;;;21.80;51.71;101685.28;6211325;23;20499;-59
2022/08/27 09:55:47;;;;;;;3.50;1.90;;;;;;;21.94;51.40;101696.66;6211496;23;20023;-58
2022/08/27 09:58:46;;;;;;;3.55;2.00;;;;;;;22.02;51.31;101691.13;6211924;23;20011;-58
2022/08/27 10:01:32;;;;;;;8.00;1.98;;;;;;;22.06;50.53;101697.81;6213106;23;20008;-58
2022/08/27 10:04:13;;;;;;;3.63;2.10;;;;;;;22.12;50.38;101697.72;6213372;23;20004;-58
2022/08/27 10:06:51;;;;;;;5.90;2.50;;;;;;;22.06;50.37;101689.34;6213861;23;20019;-59
2022/08/27 10:09:29;;;;;;;5.43;1.90;;;;;;;22.09;48.64;101695.53;6211535;23;20004;-58
2022/08/27 10:12:12;;;;;;;3.85;1.83;;;;;;;22.10;49.28;101681.09;6212828;23;20012;-60
2022/08/27 10:14:45;;;;;;;4.32;2.03;;;;;;;22.17;49.44;101683.53;6212372;23;20004;-58
2022/08/27 10:17:36;;;;;;;3.28;2.17;;;;;;;22.27;49.66;101680.50;6210721;23;20444;-58
2022/08/27 10:20:12;;;;;;;5.68;1.83;;;;;;;22.26;49.01;101674.03;6212580;23;20063;-57
2022/08/27 10:22:51;;;;;;;5.93;2.17;;;;;;;22.13;48.53;101673.97;6213913;23;20074;-57
2022/08/27 10:25:33;;;;;;;3.15;1.98;;;;;;;22.29;50.46;101672.56;6211707;23;20012;-57
2022/08/27 10:28:04;;;;;;;5.15;2.20;;;;;;;22.37;49.06;101680.31;6212522;23;20005;-57
2022/08/27 10:30:47;;;;;;;4.53;2.00;;;;;;;22.46;48.84;101674.78;6213136;23;20063;-58
2022/08/27 10:33:19;;;;;;;4.20;2.08;;;;;;;22.54;49.31;101669.22;6211501;23;20005;-57
2022/08/27 10:35:50;;;;;;;5.70;2.10;;;;;;;22.52;48.50;101673.53;6210625;23;20388;-57
2022/08/27 10:38:51;;;;;;;6.50;2.57;;;;;;;22.44;49.67;101671.41;6210477;23;20028;-57
2022/08/27 10:41:32;;;;;;;9.17;2.40;;;;;;;22.25;48.81;101672.34;6133566;23;20248;-57
2022/08/27 10:44:20;;;;;;;5.45;2.15;;;;;;;22.24;49.75;101669.81;6211983;23;20440;-57
2022/08/27 10:47:18;;;;;;;4.05;1.83;;;;;;;22.15;49.33;101680.19;6211020;23;20008;-57
2022/08/27 10:50:20;;;;;;;5.88;2.50;;;;;;;22.05;49.73;101667.88;6212263;23;20032;-57
2022/08/27 10:53:00;;;;;;;6.38;2.08;;;;;;;21.96;49.04;101668.91;6211987;23;20068;-57
2022/08/27 10:55:54;;;;;;;3.88;1.95;;;;;;;21.92;49.45;101667.84;6210119;23;20020;-58
2022/08/27 10:58:57;;;;;;;5.53;1.92;;;;;;;21.87;49.71;101676.41;6202728;23;20058;-61
2022/08/27 11:05:40;;;;;;;3.55;1.60;;;;;;;21.78;49.87;101679.13;6204289;23;20080;-62
2022/08/27 11:22:52;;;;;;;;;;;;;;;;;;;;;
2022/08/27 11:40:04;;;;;;;;;;;;;;;;;;;;;
2022/08/27 12:21:08;;;;;;;2.05;1.30;;;;;;;21.99;49.04;101651.31;5919182;24;20089;-61
2022/08/27 13:06:32;;;;;;;;;;;;;;;;;;;;;
2022/08/27 13:16:44;;;;;;;3.75;1.30;;;;;;;22.32;47.16;101634.31;6001437;23;20471;-59
2022/08/27 13:44:41;;;;;;;4.85;1.65;;;;;;;22.42;46.88;101634.13;5964506;24;20066;-61
2022/08/27 13:51:31;;;;;;;6.10;1.20;;;;;;;22.43;47.20;101630.97;5976789;24;20027;-60
2022/08/27 13:54:53;;;;;;;;;;;;;;;;;;;;;
2022/08/27 15:30:42;;;;;;;;;;;;;;;;;;;;;
2022/08/27 15:47:51;;;;;;;;;;;;;;;;;;;;;
2022/08/27 15:50:59;;;;;;;;;;;;;;;;;;;;;
2022/08/27 16:08:02;;;;;;;4.45;1.65;;;;;;;22.25;50.70;101621.44;5976627;23;20018;-61
2022/08/27 16:21:43;;;;;;;;;;;;;;;;;;;;;
2022/08/27 16:25:01;;;;;;;3.95;1.40;;;;;;;22.37;51.84;101620.94;5947712;23;20019;-58
2022/08/27 16:28:00;;;;;;;9.80;1.90;;;;;;;22.33;51.23;101616.22;5972283;24;20095;-61
2022/08/27 16:30:44;;;;;;;4.25;1.70;;;;;;;22.37;51.19;101622.91;5982574;23;20430;-62
2022/08/27 16:38:16;;;;;;;5.22;1.55;;;;;;;22.27;50.20;101621.97;5970785;24;20008;-71
2022/08/27 17:40:38;;;;;;;8.18;1.58;;;;;;;21.86;50.20;101613.41;6275403;22;20026;-62
2022/08/27 18:02:06;;;;;;;4.05;1.90;;;;;;;21.86;50.25;101615.41;5896462;24;20058;-63
2022/08/27 18:05:14;;;;;;;7.22;2.00;;;;;;;21.88;50.56;101622.41;5895875;24;20041;-60
2022/08/27 19:58:29;;;;;;;6.78;2.17;;;;;;;21.15;51.73;101724.69;5725672;24;20027;-62
2022/08/27 20:02:01;;;;;;;;;;;;;;;;;;;;;
2022/08/27 20:12:01;;;;;;;;;;;;;;;;;;;;;
2022/08/27 21:36:11;;;;;;;6.70;1.95;;;;;;;20.68;50.54;101761.13;5973048;24;20008;-59
2022/08/27 21:39:36;;;;;;;;;;;;;;;;;;;;;
2022/08/27 21:50:38;;;;;;;;;;;;;;;;;;;;;
2022/08/27 22:28:41;;;;;;;;;;;;;;;;;;;;;
2022/08/27 22:32:23;;;;;;;7.82;2.45;;;;;;;20.31;50.60;101770.19;5837948;24;20217;-61
2022/08/27 23:14:08;;;;;;;12.00;3.55;;;;;;;20.03;50.58;101797.22;5828024;24;20056;-60
2022/08/27 23:20:07;;;;;;;9.02;3.30;;;;;;;19.89;50.55;101796.22;5813196;24;20149;-57
2022/08/27 23:22:32;;;;;;;8.20;3.35;;;;;;;19.91;50.53;101796.75;6078597;22;20060;-57
2022/08/27 23:27:41;;;;;;;10.02;3.38;;;;;;;19.90;50.65;101793.09;6302244;22;20018;-58
2022/08/27 23:30:07;;;;;;;11.27;3.35;;;;;;;19.82;50.85;101796.53;6299826;22;20003;-57
2022/08/27 23:32:33;;;;;;;9.93;4.05;;;;;;;19.82;51.04;101805.84;6304515;22;19999;-57
2022/08/27 23:34:59;;;;;;;7.45;4.15;;;;;;;19.80;50.94;101799.63;6306759;22;20365;-58
2022/08/27 23:37:25;;;;;;;9.38;3.80;;;;;;;19.78;51.21;101796.28;6305344;22;20000;-58
2022/08/27 23:39:50;;;;;;;9.10;3.88;;;;;;;19.73;51.05;101795.47;6304632;22;20061;-56
2022/08/27 23:42:17;;;;;;;9.32;3.03;;;;;;;19.72;51.34;101803.06;6327370;22;20137;-57
2022/08/27 23:44:44;;;;;;;9.00;3.50;;;;;;;19.72;51.19;101800.25;6338424;22;20322;-57
2022/08/27 23:47:10;;;;;;;9.25;3.63;;;;;;;19.71;51.20;101804.22;6336988;22;20124;-57
2022/08/27 23:49:35;;;;;;;9.57;3.67;;;;;;;19.71;51.37;101806.19;6337208;22;20078;-57
2022/08/27 23:52:01;;;;;;;8.35;3.65;;;;;;;19.59;51.63;101803.69;6336763;22;20386;-57
2022/08/27 23:54:26;;;;;;;9.57;3.42;;;;;;;19.58;51.54;101811.31;6336219;22;20474;-58
2022/08/27 23:56:52;;;;;;;12.63;4.25;;;;;;;19.59;51.45;101801.72;6337293;22;20034;-58
2022/08/27 23:59:17;;;;;;;8.43;3.88;;;;;;;19.57;51.10;101805.94;6335508;22;20327;-58
